Rechercher aéroport 
image banner adimage banner adimage banner ad
image banner ad

CN52 - Oroville Hospital

Situé à Oroville, United States

ICAO - CN52, IATA -

Données fournies par Airmate  

Information générale

Coordonnées: N39°30'27" W121°32'30"
Élévation : 255 feet MSL.
Variation magnétique : 14° East
Voir autres Aéroports à California

Données opérationnelles

Special qualification required
Heure actuelle UTC:
Heure actuelle locale:
Météo à : KOVE - Oroville Muni ( 7 km )
METAR: KOVE 240853Z AUTO 13016KT 5SM RA BR OVC060 13/11 A2977 RMK AO2 SLP084 P0011 60023 T01330111 58019
Voir NOTAMs / SUP AIP / TFR affectant cet aéroport [VIEW]
Fréquences de communication: [VIEW]

Pistes:

Coordonnées de l'aéroport

Adresse: Oroville United States

Vue satellite de CN52